Time;durP1;ratioP1;P1;durP2;ratioP2;P2;SDS_P1;SDS_P2;PMS_P1;PMS_P2;Temp;Humidity;BMP_temperature;BMP_pressure;BME280_temperature;BME280_humidity;BME280_pressure;Samples;Min_cycle;Max_cycle;Signal;HPM_P1;HPM_P2
2021/04/21 00:01:13;;;;;;;10.95;8.88;;;;;;;9.66;63.28;94333.80;827686;71;31966;-77
2021/04/21 00:16:09;;;;;;;11.22;8.88;;;;;;;9.66;62.93;94331.72;826902;71;30631;-79
2021/04/21 00:31:14;;;;;;;11.38;9.73;;;;;;;9.63;63.18;94324.67;827427;71;30479;-78
2021/04/21 00:46:20;;;;;;;18.12;14.33;;;;;;;9.27;64.13;94332.80;827602;71;29709;-77
2021/04/21 01:01:11;;;;;;;16.30;13.58;;;;;;;;;;833426;71;30305;-78
2021/04/21 01:16:11;;;;;;;19.42;14.50;;;;;;;8.91;66.56;94334.56;793349;74;30890;-79
2021/04/21 01:31:19;;;;;;;20.12;14.75;;;;;;;8.72;67.81;160951.84;827418;71;33239;-78
2021/04/21 01:46:17;;;;;;;19.45;15.40;;;;;;;8.85;67.50;94332.04;829076;71;32767;-79
2021/04/21 02:01:14;;;;;;;18.30;13.90;;;;;;;;;;828100;71;29767;-79
2021/04/21 02:16:21;;;;;;;15.05;12.50;;;;;;;9.11;67.85;94342.69;833468;71;31982;-79
2021/04/21 02:31:16;;;;;;;16.52;12.68;;;;;;;9.19;67.32;123554.15;827845;71;31803;-76
2021/04/21 02:46:36;;;;;;;11.38;9.10;;;;;;;9.27;65.90;94357.67;833503;71;33083;-78
2021/04/21 03:01:56;;;;;;;13.08;10.58;;;;;;;9.29;65.07;94363.41;829922;71;32051;-79
2021/04/21 03:16:11;;;;;;;11.65;9.05;;;;;;;9.32;65.43;94361.52;830451;71;29656;-76
2021/04/21 03:31:16;;;;;;;14.45;11.65;;;;;;;9.27;65.71;94366.84;826724;71;32743;-78
2021/04/21 03:46:07;;;;;;;12.45;9.90;;;;;;;;;;833649;71;29702;-78
2021/04/21 04:01:12;;;;;;;12.65;9.85;;;;;;;9.74;64.56;94386.86;833610;71;29711;-76
2021/04/21 04:16:10;;;;;;;12.50;10.55;;;;;;;12.56;58.54;94402.91;827593;71;29969;-75
2021/04/21 04:31:09;;;;;;;12.40;10.20;;;;;;;12.09;57.15;94414.31;832896;71;30493;-74
2021/04/21 04:46:11;;;;;;;21.02;14.00;;;;;;;11.47;59.07;94430.05;833300;71;30035;-75
2021/04/21 05:01:15;;;;;;;18.95;12.80;;;;;;;12.05;62.43;94445.68;822325;70;32677;-74
2021/04/21 05:16:12;;;;;;;12.13;10.32;;;;;;;11.97;60.55;94459.53;819768;70;30001;-76
2021/04/21 05:31:37;;;;;;;14.23;10.60;;;;;;;12.23;59.26;94463.14;826323;71;32718;-77
2021/04/21 05:46:32;;;;;;;14.07;11.35;;;;;;;12.43;59.35;94472.97;826558;71;33253;-76
2021/04/21 06:01:19;;;;;;;14.10;11.45;;;;;;;12.36;59.15;94481.26;821116;71;33103;-77
2021/04/21 06:16:08;;;;;;;13.08;10.90;;;;;;;13.17;57.92;94497.45;833320;71;29714;-76
2021/04/21 06:31:37;;;;;;;13.50;10.30;;;;;;;15.82;50.84;94501.48;824295;71;32708;-74
2021/04/21 06:46:10;;;;;;;12.37;9.63;;;;;;;16.07;48.39;94494.26;827318;71;29722;-76
2021/04/21 07:01:13;;;;;;;13.05;11.65;;;;;;;17.51;46.42;94498.61;833141;71;30182;-76
2021/04/21 07:16:16;;;;;;;10.98;9.80;;;;;;;18.58;43.61;94505.00;833154;71;29796;-77
2021/04/21 07:31:17;;;;;;;10.25;8.03;;;;;;;19.45;41.45;94503.46;828092;71;29657;-75
2021/04/21 07:46:23;;;;;;;9.78;7.10;;;;;;;20.99;37.43;94509.99;826585;71;32054;-76
2021/04/21 08:01:14;;;;;;;8.38;7.58;;;;;;;20.06;40.41;94510.20;833464;71;32362;-77
2021/04/21 08:16:31;;;;;;;8.33;7.50;;;;;;;21.06;38.42;94514.68;828038;71;31803;-74
2021/04/21 08:31:09;;;;;;;6.58;5.87;;;;;;;21.26;36.02;94516.75;833591;71;29514;-76
2021/04/21 08:46:10;;;;;;;10.73;6.80;;;;;;;22.31;35.38;94504.66;826450;71;28627;-76
2021/04/21 09:01:48;;;;;;;5.33;4.93;;;;;;;23.88;30.67;94491.34;832867;71;32514;-76
2021/04/21 09:16:11;;;;;;;5.70;5.13;;;;;;;23.48;29.10;94477.42;827860;71;28801;-76
2021/04/21 09:31:14;;;;;;;5.43;5.03;;;;;;;22.39;29.18;94470.77;828201;71;29260;-77
2021/04/21 09:46:23;;;;;;;6.80;6.10;;;;;;;20.21;35.89;94516.06;826846;70;32676;-76
2021/04/21 10:01:20;;;;;;;5.70;4.03;;;;;;;17.88;43.94;94547.17;827106;71;31812;-76
2021/04/21 10:16:15;;;;;;;4.20;3.37;;;;;;;16.47;51.60;94544.13;827029;71;32004;-75
2021/04/21 10:31:18;;;;;;;5.30;4.50;;;;;;;17.34;53.35;94532.20;826721;71;31703;-75
2021/04/21 10:46:16;;;;;;;3.75;3.45;;;;;;;19.24;45.02;94518.89;832928;71;32605;-77
2021/04/21 11:01:36;;;;;;;3.50;3.30;;;;;;;19.08;41.26;94518.33;824896;71;31914;-77
2021/04/21 11:16:22;;;;;;;3.80;3.60;;;;;;;16.84;45.85;94521.80;827942;71;29657;-75
2021/04/21 11:31:15;;;;;;;3.98;3.67;;;;;;;16.65;44.99;94503.16;826950;71;31718;-74
2021/04/21 11:46:08;;;;;;;3.00;2.80;;;;;;;18.60;39.97;94486.27;833814;71;28685;-75
2021/04/21 12:01:17;;;;;;;3.30;3.10;;;;;;;19.65;37.51;94481.69;827296;71;32205;-75
2021/04/21 12:16:36;;;;;;;4.28;3.90;;;;;;;19.60;35.68;94472.05;828857;71;32238;-75
2021/04/21 12:31:13;;;;;;;6.55;4.40;;;;;;;18.22;38.34;94463.59;819218;71;29154;-78
2021/04/21 12:46:24;;;;;;;5.97;5.37;;;;;;;17.46;40.74;94466.45;833048;71;31912;-75
2021/04/21 13:01:14;;;;;;;4.83;4.42;;;;;;;17.86;38.16;94443.20;829386;71;28751;-75
2021/04/21 13:16:22;;;;;;;8.33;7.30;;;;;;;17.20;38.26;94438.92;841285;70;31783;-77
2021/04/21 13:31:12;;;;;;;4.85;4.45;;;;;;;16.77;38.77;94427.67;834971;71;29394;-76
2021/04/21 13:46:12;;;;;;;5.53;5.03;;;;;;;16.48;39.03;94410.59;829441;71;30975;-77
2021/04/21 14:01:15;;;;;;;5.65;5.03;;;;;;;16.23;40.27;94402.56;834815;71;31756;-77
2021/04/21 14:16:19;;;;;;;6.50;5.90;;;;;;;15.99;40.59;94404.55;828061;71;31862;-76
2021/04/21 14:31:10;;;;;;;6.03;4.55;;;;;;;16.06;43.23;94419.91;828452;71;29397;-74
2021/04/21 14:46:09;;;;;;;4.30;4.00;;;;;;;16.36;40.70;94400.20;833434;71;28923;-76
2021/04/21 15:01:47;;;;;;;4.37;3.98;;;;;;;16.55;38.56;94404.98;827335;71;31821;-77
2021/04/21 15:16:15;;;;;;;5.70;5.22;;;;;;;16.40;40.31;94412.21;827377;71;31782;-79
2021/04/21 15:31:08;;;;;;;6.78;6.15;;;;;;;16.36;41.04;94425.88;832774;71;28702;-75
2021/04/21 15:46:14;;;;;;;6.00;5.50;;;;;;;16.20;40.74;94422.53;832824;71;32693;-75
2021/04/21 16:01:14;;;;;;;5.60;5.00;;;;;;;15.88;41.23;94430.64;826327;71;32725;-75
2021/04/21 16:16:09;;;;;;;9.05;6.50;;;;;;;15.42;42.09;94429.09;820108;71;29275;-75
2021/04/21 16:31:08;;;;;;;6.37;5.45;;;;;;;14.96;42.92;94439.96;833357;71;29762;-76
2021/04/21 16:46:14;;;;;;;8.33;7.03;;;;;;;14.60;44.26;94446.97;826774;71;32708;-75
2021/04/21 17:01:15;;;;;;;6.87;6.17;;;;;;;14.32;45.42;94479.50;827133;71;32685;-76
2021/04/21 17:16:10;;;;;;;9.45;7.60;;;;;;;14.10;50.63;94498.34;828940;71;29689;-81
2021/04/21 17:31:55;;;;;;;6.75;6.10;;;;;;;13.81;49.62;94522.13;833576;70;32786;-84
2021/04/21 18:16:25;;;;;;;7.47;6.67;;;;;;;13.34;47.28;94587.71;828054;71;33151;-83
2021/04/21 18:31:28;;;;;;;12.82;9.68;;;;;;;13.24;48.71;94598.48;833815;71;30290;-79
2021/04/21 19:31:31;;;;;;;16.50;12.10;;;;;;;12.72;50.59;94654.73;834886;71;32672;-83
2021/04/21 19:46:31;;;;;;;20.25;13.28;;;;;;;12.59;51.35;94660.24;851540;68;33200;-84
2021/04/21 20:16:18;;;;;;;21.77;14.87;;;;;;;12.23;52.41;94667.02;823986;71;29661;-83
2021/04/21 20:31:23;;;;;;;15.68;11.85;;;;;;;12.08;53.39;94668.63;824817;71;32676;-83
2021/04/21 20:46:29;;;;;;;;;;;;;;;;;;;;;
2021/04/21 21:01:45;;;;;;;14.65;12.65;;;;;;;11.78;54.51;94683.88;834846;71;30705;-83
2021/04/21 21:16:20;;;;;;;18.32;13.93;;;;;;;11.47;56.04;94691.48;835144;71;33278;-84
2021/04/21 21:31:09;;;;;;;14.55;12.28;;;;;;;11.22;55.77;94697.94;828172;71;29699;-84
2021/04/21 21:46:18;;;;;;;14.47;12.18;;;;;;;11.11;56.17;94703.08;826739;71;32034;-83
2021/04/21 22:01:19;;;;;;;8.75;7.85;;;;;;;10.94;54.57;94709.61;833824;71;33206;-82
2021/04/21 22:16:13;;;;;;;14.38;9.38;;;;;;;10.84;56.12;94711.06;827893;71;30280;-83
2021/04/21 22:31:27;;;;;;;17.40;12.35;;;;;;;10.71;57.19;94713.88;833389;71;32816;-82
2021/04/21 22:46:10;;;;;;;12.05;10.68;;;;;;;10.28;58.35;94723.53;826185;71;29714;-83
2021/04/21 23:01:16;;;;;;;13.13;9.33;;;;;;;10.09;58.75;94729.50;827030;71;32720;-82
2021/04/21 23:16:12;;;;;;;14.07;9.43;;;;;;;9.86;59.49;94734.98;827881;71;32058;-83
2021/04/21 23:31:09;;;;;;;12.15;8.68;;;;;;;9.73;60.15;90919.94;833837;71;30278;-81
2021/04/21 23:46:11;;;;;;;10.75;8.68;;;;;;;;;;829451;71;32050;-81
